Wheelwright, Argentina
Current Conditions -  °F | °C
As of 4:00 AM on Monday 22 Dec 2014 (Local Time) from SAAR Reporting Station
Clear Clear  
Wind Chill: 55°   Ceiling: Unl
Heat Index: 55°   Visibility: 6mi
Dew Point: 43°   Wind: 7mph
Humidity: 63%   Direction: 270°W
Pressure: 29.97"   Gusts: NA
Location:  33.78°S, 61.22°W
Report Text: SAAR 220700Z 27006KT CAVOK 13/06 Q1015
Loading
Personal Weather Stations






























Interactive Weather Map New forecast layout! Learn more

10-Day Weather Forecast

Advertisements
Track Severe Weather on mobile